createdAt,value
2023-02-11T00:01:56.521Z,5.86
2023-02-11T00:04:23.193Z,5.86
2023-02-11T00:06:56.615Z,5.88
2023-02-11T00:09:31.796Z,5.86
2023-02-11T00:15:16.507Z,5.83
2023-02-11T00:17:49.934Z,5.71
2023-02-11T00:20:52.065Z,5.94
2023-02-11T00:23:19.348Z,5.96
2023-02-11T00:28:28.550Z,5.81
2023-02-11T00:31:39.759Z,5.76
2023-02-11T00:34:06.561Z,5.97
2023-02-11T00:36:50.494Z,5.92
2023-02-11T00:39:20.284Z,5.98
2023-02-11T00:42:05.258Z,5.91
2023-02-11T00:44:38.756Z,6.05
2023-02-11T00:47:11.546Z,6.06
2023-02-11T00:49:56.322Z,6.02
2023-02-11T00:52:46.506Z,5.95
2023-02-11T00:55:30.038Z,6.07
2023-02-11T00:58:13.290Z,5.88
2023-02-11T01:00:40.414Z,5.91
2023-02-11T01:06:11.421Z,5.90
2023-02-11T01:08:45.602Z,6.07
2023-02-11T01:11:15.719Z,6.11
2023-02-11T01:13:49.547Z,6.08
2023-02-11T01:16:20.205Z,6.10
2023-02-11T01:18:54.577Z,6.11
2023-02-11T01:21:27.598Z,5.99
2023-02-11T01:24:00.575Z,6.09
2023-02-11T01:26:27.337Z,5.97
2023-02-11T01:29:02.000Z,6.05
2023-02-11T01:31:38.684Z,6.07
2023-02-11T01:34:14.553Z,6.09
2023-02-11T01:36:41.967Z,6.07
2023-02-11T01:39:15.523Z,6.04
2023-02-11T01:42:23.990Z,5.99
2023-02-11T01:45:04.515Z,6.11
2023-02-11T01:47:31.178Z,6.11
2023-02-11T01:50:11.575Z,6.11
2023-02-11T01:52:51.892Z,6.04
2023-02-11T01:55:46.693Z,6.11
2023-02-11T01:58:20.590Z,6.12
2023-02-11T02:00:56.885Z,6.10
2023-02-11T02:03:42.010Z,5.99
2023-02-11T02:06:43.590Z,6.03
2023-02-11T02:09:18.638Z,6.04
2023-02-11T02:11:55.570Z,6.04
2023-02-11T02:14:22.414Z,6.10
2023-02-11T02:20:27.511Z,6.11
2023-02-11T02:23:10.486Z,6.10
2023-02-11T02:26:16.504Z,6.10
2023-02-11T02:29:35.585Z,6.11
2023-02-11T02:32:52.564Z,6.13
2023-02-11T02:35:43.561Z,6.13
2023-02-11T02:38:26.654Z,6.12
2023-02-11T02:41:34.174Z,6.07
2023-02-11T02:44:21.610Z,6.12
2023-02-11T02:46:56.857Z,6.13
2023-02-11T02:50:05.102Z,6.15
2023-02-11T02:53:14.670Z,6.13
2023-02-11T02:56:22.202Z,6.14
2023-02-11T02:59:33.679Z,6.13
2023-02-11T03:03:10.523Z,6.12
2023-02-11T03:05:56.937Z,6.11
2023-02-11T03:08:33.604Z,6.10
2023-02-11T03:11:09.558Z,6.09
2023-02-11T03:13:45.536Z,6.07
2023-02-11T03:16:38.176Z,6.08
2023-02-11T03:19:51.528Z,6.07
2023-02-11T03:22:33.915Z,6.06
2023-02-11T03:25:11.567Z,6.07
2023-02-11T03:27:53.187Z,6.09
2023-02-11T03:30:39.574Z,6.08
2023-02-11T03:33:18.341Z,6.07
2023-02-11T03:36:06.594Z,6.04
2023-02-11T03:38:46.073Z,6.00
2023-02-11T03:44:30.586Z,6.08
2023-02-11T03:47:18.530Z,6.06
2023-02-11T03:49:56.922Z,6.05
2023-02-11T03:52:41.625Z,6.03
2023-02-11T03:55:21.361Z,5.96
2023-02-11T03:57:58.654Z,5.96
2023-02-11T04:00:41.214Z,6.05
2023-02-11T04:03:18.046Z,6.02
2023-02-11T04:05:48.565Z,6.03
2023-02-11T04:08:30.362Z,6.02
2023-02-11T04:10:57.112Z,5.99
2023-02-11T04:13:30.603Z,6.01
2023-02-11T04:15:57.225Z,6.01
2023-02-11T04:18:30.681Z,5.96
2023-02-11T04:20:57.338Z,5.91
2023-02-11T04:23:24.222Z,5.97
2023-02-11T04:25:57.571Z,5.97
2023-02-11T04:31:24.456Z,5.89
2023-02-11T04:33:51.322Z,5.92
2023-02-11T04:36:35.057Z,5.81
2023-02-11T04:39:01.924Z,5.84
2023-02-11T04:41:34.617Z,5.91
2023-02-11T04:44:21.606Z,5.90
2023-02-11T04:47:04.655Z,5.85
2023-02-11T04:49:51.669Z,5.85
2023-02-11T04:52:24.597Z,5.85
2023-02-11T04:54:51.436Z,5.83
2023-02-11T04:57:30.743Z,5.85
2023-02-11T04:59:57.433Z,5.81
2023-02-11T05:02:30.612Z,5.81
2023-02-11T05:05:02.278Z,5.82
2023-02-11T05:07:29.202Z,5.68
2023-02-11T05:10:04.753Z,5.80
2023-02-11T05:12:31.503Z,5.80
2023-02-11T05:15:04.689Z,5.74
2023-02-11T05:17:31.427Z,5.80
2023-02-11T05:20:04.646Z,5.77
2023-02-11T05:22:31.253Z,5.80
2023-02-11T05:25:12.165Z,5.80
2023-02-11T05:27:44.545Z,5.79
2023-02-11T05:30:20.087Z,5.70
2023-02-11T05:32:46.902Z,5.72
2023-02-11T05:35:26.426Z,5.75
2023-02-11T05:37:53.060Z,5.79
2023-02-11T05:40:29.551Z,5.80
2023-02-11T05:42:56.247Z,5.78
2023-02-11T05:45:41.588Z,5.67
2023-02-11T05:48:14.756Z,5.76
2023-02-11T05:50:43.999Z,5.79
2023-02-11T05:53:20.632Z,5.76
2023-02-11T05:55:56.187Z,5.77
2023-02-11T05:58:29.722Z,5.77
2023-02-11T06:01:03.552Z,5.77
2023-02-11T06:03:42.476Z,5.76
2023-02-11T06:06:23.225Z,5.80
2023-02-11T06:08:58.558Z,5.72
2023-02-11T06:11:27.809Z,5.70
2023-02-11T06:14:00.616Z,5.75
2023-02-11T06:16:30.244Z,5.70
2023-02-11T06:19:03.623Z,5.83
2023-02-11T06:24:59.756Z,5.80
2023-02-11T06:27:29.712Z,5.83
2023-02-11T06:30:03.647Z,5.79
2023-02-11T06:32:43.459Z,5.86
2023-02-11T06:35:30.112Z,5.87
2023-02-11T06:37:56.924Z,5.88
2023-02-11T06:40:33.020Z,5.78
2023-02-11T06:43:09.356Z,5.69
2023-02-11T06:45:50.095Z,5.89
2023-02-11T06:48:16.969Z,5.76
2023-02-11T06:50:49.689Z,5.89
2023-02-11T06:53:25.691Z,5.92
2023-02-11T06:55:52.787Z,5.90
2023-02-11T06:58:26.073Z,5.93
2023-02-11T07:00:57.815Z,5.93
2023-02-11T07:03:31.798Z,5.93
2023-02-11T07:06:02.956Z,5.95
2023-02-11T07:14:24.005Z,5.88
2023-02-11T07:16:50.587Z,5.94
2023-02-11T07:19:23.716Z,6.01
2023-02-11T07:22:16.482Z,6.03
2023-02-11T07:24:53.681Z,6.04
2023-02-11T07:27:30.870Z,6.03
2023-02-11T07:30:07.256Z,5.96
2023-02-11T07:32:34.146Z,6.01
2023-02-11T07:35:10.336Z,6.09
2023-02-11T07:37:37.215Z,6.13
2023-02-11T07:40:17.706Z,6.11
2023-02-11T07:42:44.394Z,6.16
2023-02-11T07:45:33.751Z,6.20
2023-02-11T07:48:13.661Z,6.22
2023-02-11T07:50:40.341Z,6.19
2023-02-11T07:53:13.802Z,6.27
2023-02-11T07:55:40.580Z,6.29
2023-02-11T07:58:16.679Z,6.28
2023-02-11T08:00:43.499Z,6.22
2023-02-11T08:03:30.086Z,6.22
2023-02-11T08:06:16.597Z,6.32
2023-02-11T08:08:49.747Z,6.30
2023-02-11T08:14:06.697Z,6.30
2023-02-11T08:19:30.566Z,6.33
2023-02-11T08:21:57.590Z,6.31
2023-02-11T08:24:30.685Z,6.31
2023-02-11T08:26:57.351Z,6.31
2023-02-11T08:29:36.764Z,6.31
2023-02-11T08:32:09.294Z,6.31
2023-02-11T08:34:44.664Z,6.25
2023-02-11T08:37:22.967Z,6.31
2023-02-11T08:39:58.722Z,6.33
2023-02-11T08:42:34.231Z,6.29
2023-02-11T08:45:18.859Z,6.26
2023-02-11T08:48:19.487Z,6.23
2023-02-11T08:50:59.719Z,6.38
2023-02-11T08:53:29.337Z,6.40
2023-02-11T08:55:56.073Z,6.42
2023-02-11T08:58:29.791Z,6.32
2023-02-11T09:00:59.624Z,6.34
2023-02-11T09:03:43.868Z,6.49
2023-02-11T09:06:12.330Z,6.39
2023-02-11T09:08:48.785Z,6.55
2023-02-11T09:11:48.342Z,6.50
2023-02-11T09:14:27.742Z,6.65
2023-02-11T09:16:57.867Z,6.57
2023-02-11T09:19:31.743Z,6.59
2023-02-11T09:21:59.161Z,6.69
2023-02-11T09:24:32.724Z,6.80
2023-02-11T09:26:59.642Z,6.77
2023-02-11T09:29:33.790Z,6.77
2023-02-11T09:32:30.790Z,6.94
2023-02-11T09:35:03.934Z,6.94
2023-02-11T09:37:35.127Z,6.91
2023-02-11T09:43:27.548Z,7.09
2023-02-11T09:46:07.844Z,7.08
2023-02-11T09:48:51.112Z,7.10
2023-02-11T09:51:40.836Z,7.16
2023-02-11T09:54:27.846Z,7.10
2023-02-11T09:57:00.798Z,7.13
2023-02-11T09:59:36.013Z,7.27
2023-02-11T10:02:27.588Z,7.25
2023-02-11T10:04:57.454Z,7.36
2023-02-11T10:07:57.834Z,7.40
2023-02-11T10:10:51.113Z,7.39
2023-02-11T10:13:49.748Z,7.46
2023-02-11T10:17:03.801Z,7.49
2023-02-11T10:19:49.764Z,7.53
2023-02-11T10:22:31.780Z,7.58
2023-02-11T10:27:51.937Z,7.64
2023-02-11T10:31:10.397Z,7.64
2023-02-11T10:34:10.792Z,7.72
2023-02-11T10:36:45.183Z,7.59
2023-02-11T10:39:24.751Z,7.80
2023-02-11T10:42:24.060Z,7.69
2023-02-11T10:45:14.760Z,7.89
2023-02-11T10:47:55.812Z,7.86
2023-02-11T10:50:31.290Z,7.82
2023-02-11T10:53:42.842Z,7.97
2023-02-11T10:56:14.097Z,7.81
2023-02-11T10:59:30.877Z,7.96
2023-02-11T11:02:01.550Z,8.08
2023-02-11T11:04:38.866Z,8.13
2023-02-11T11:07:18.152Z,8.15
2023-02-11T11:09:55.875Z,8.22
2023-02-11T11:12:45.327Z,8.30
2023-02-11T11:15:29.039Z,8.37
2023-02-11T11:18:23.366Z,8.38
2023-02-11T11:21:14.808Z,8.38
2023-02-11T11:23:48.765Z,8.39
2023-02-11T11:26:27.085Z,8.38
2023-02-11T11:29:16.676Z,8.33
2023-02-11T11:32:06.025Z,8.32
2023-02-11T11:34:38.362Z,8.35
2023-02-11T11:40:25.480Z,8.47
2023-02-11T11:43:25.832Z,8.34
2023-02-11T11:46:00.545Z,8.56
2023-02-11T11:48:41.920Z,8.62
2023-02-11T11:51:36.084Z,8.60
2023-02-11T11:54:06.813Z,8.50
2023-02-11T11:57:29.247Z,8.70
2023-02-11T12:00:06.773Z,8.65
2023-02-11T12:03:19.883Z,8.77
2023-02-11T12:06:12.163Z,8.80
2023-02-11T12:09:30.823Z,8.87
2023-02-11T12:12:54.516Z,8.93
2023-02-11T12:15:38.832Z,9.02
2023-02-11T12:18:26.130Z,9.14
2023-02-11T12:21:09.902Z,9.23
2023-02-11T12:24:20.227Z,9.37
2023-02-11T12:27:14.052Z,9.48
2023-02-11T12:30:08.934Z,9.62
2023-02-11T12:33:02.846Z,9.74
2023-02-11T12:36:08.862Z,9.76
2023-02-11T12:39:19.844Z,9.88
2023-02-11T12:42:30.814Z,9.93
2023-02-11T12:45:29.267Z,9.96
2023-02-11T12:48:39.941Z,9.97
2023-02-11T12:51:31.823Z,9.91
2023-02-11T12:54:46.363Z,9.95
2023-02-11T12:57:32.784Z,9.91
2023-02-11T13:00:25.068Z,9.86
2023-02-11T13:03:43.155Z,9.81
2023-02-11T13:06:15.729Z,9.81
2023-02-11T13:09:02.851Z,9.80
2023-02-11T13:11:52.092Z,9.82
2023-02-11T13:14:35.853Z,9.91
2023-02-11T13:17:12.046Z,9.99
2023-02-11T13:19:56.953Z,10.04
2023-02-11T13:22:48.479Z,10.04
2023-02-11T13:26:13.194Z,10.02
2023-02-11T13:28:54.398Z,9.93
2023-02-11T13:31:28.080Z,10.07
2023-02-11T13:33:54.950Z,10.14
2023-02-11T13:36:32.994Z,10.20
2023-02-11T13:39:06.466Z,10.21
2023-02-11T13:41:43.742Z,10.05
2023-02-11T13:44:10.327Z,10.22
2023-02-11T13:47:08.894Z,10.22
2023-02-11T13:49:53.030Z,10.12
2023-02-11T13:52:37.890Z,10.46
2023-02-11T13:55:16.414Z,10.62
2023-02-11T13:57:52.345Z,10.67
2023-02-11T14:00:34.213Z,10.69
2023-02-11T14:03:45.074Z,10.85
2023-02-11T14:06:54.284Z,10.89
2023-02-11T14:09:29.990Z,10.78
2023-02-11T14:12:32.030Z,10.66
2023-02-11T14:15:20.812Z,10.59
2023-02-11T14:17:47.748Z,10.72
2023-02-11T14:20:50.255Z,10.83
2023-02-11T14:23:30.984Z,10.93
2023-02-11T14:26:31.928Z,10.94
2023-02-11T14:29:17.127Z,10.81
2023-02-11T14:31:58.185Z,10.66
2023-02-11T14:34:53.904Z,10.59
2023-02-11T14:38:17.913Z,10.52
2023-02-11T14:41:25.923Z,10.37
2023-02-11T14:43:57.940Z,10.28
2023-02-11T14:46:57.007Z,10.19
2023-02-11T14:49:42.733Z,10.13
2023-02-11T14:52:40.366Z,10.08
2023-02-11T14:55:33.352Z,9.94
2023-02-11T14:58:18.918Z,10.03
2023-02-11T15:00:50.516Z,9.94
2023-02-11T15:03:36.925Z,9.98
2023-02-11T15:06:08.215Z,9.99
2023-02-11T15:08:44.921Z,9.92
2023-02-11T15:11:14.520Z,10.02
2023-02-11T15:13:55.568Z,9.98
2023-02-11T15:16:28.700Z,9.97
2023-02-11T15:19:07.825Z,10.03
2023-02-11T15:21:36.379Z,10.03
2023-02-11T15:24:30.976Z,10.03
2023-02-11T15:27:04.957Z,10.00
2023-02-11T15:29:46.966Z,9.95
2023-02-11T15:32:29.976Z,9.91
2023-02-11T15:35:05.065Z,9.90
2023-02-11T15:37:31.934Z,9.89
2023-02-11T15:40:22.858Z,9.89
2023-02-11T15:43:00.409Z,9.85
2023-02-11T15:45:54.989Z,9.82
2023-02-11T15:48:37.885Z,9.80
2023-02-11T15:51:36.963Z,9.75
2023-02-11T15:54:23.935Z,9.72
2023-02-11T15:56:58.976Z,9.62
2023-02-11T15:59:41.962Z,9.60
2023-02-11T16:02:17.062Z,9.53
2023-02-11T16:04:59.941Z,9.40
2023-02-11T16:07:56.956Z,9.43
2023-02-11T16:10:35.569Z,9.37
2023-02-11T16:13:24.949Z,9.34
2023-02-11T16:16:17.191Z,9.30
2023-02-11T16:19:25.690Z,9.27
2023-02-11T16:22:01.920Z,9.23
2023-02-11T16:24:40.094Z,9.17
2023-02-11T16:27:29.930Z,9.19
2023-02-11T16:30:03.865Z,9.15
2023-02-11T16:32:31.223Z,9.14
2023-02-11T16:35:06.961Z,9.07
2023-02-11T16:37:41.970Z,9.07
2023-02-11T16:40:09.954Z,9.03
2023-02-11T16:42:42.933Z,9.05
2023-02-11T16:45:32.985Z,9.01
2023-02-11T16:48:15.046Z,9.00
2023-02-11T16:50:46.460Z,8.96
2023-02-11T16:53:23.960Z,8.90
2023-02-11T16:56:06.083Z,8.92
2023-02-11T16:58:40.958Z,8.90
2023-02-11T17:01:07.875Z,8.84
2023-02-11T17:03:47.973Z,8.83
2023-02-11T17:06:18.034Z,8.74
2023-02-11T17:08:50.967Z,8.81
2023-02-11T17:11:23.645Z,8.79
2023-02-11T17:13:56.972Z,8.66
2023-02-11T17:16:32.012Z,8.79
2023-02-11T17:18:58.876Z,8.77
2023-02-11T17:21:44.052Z,8.73
2023-02-11T17:24:11.478Z,8.71
2023-02-11T17:26:56.891Z,8.59
2023-02-11T17:29:28.278Z,8.51
2023-02-11T17:32:20.345Z,8.56
2023-02-11T17:34:47.086Z,8.65
2023-02-11T17:37:20.034Z,8.57
2023-02-11T17:39:46.672Z,8.63
2023-02-11T17:42:21.000Z,8.62
2023-02-11T17:44:47.729Z,8.61
2023-02-11T17:47:27.979Z,8.54
2023-02-11T17:49:54.627Z,8.57
2023-02-11T17:52:28.021Z,8.56
2023-02-11T17:55:02.034Z,8.55
2023-02-11T17:57:28.741Z,8.49
2023-02-11T18:00:02.462Z,8.51
2023-02-11T18:02:29.140Z,8.49
2023-02-11T18:05:04.022Z,8.48
2023-02-11T18:07:30.777Z,8.47
2023-02-11T18:10:03.932Z,8.41
2023-02-11T18:12:33.110Z,8.37
2023-02-11T18:15:06.026Z,8.40
2023-02-11T18:17:35.082Z,8.35
2023-02-11T18:20:14.405Z,8.24
2023-02-11T18:22:41.648Z,8.25
2023-02-11T18:25:20.295Z,8.24
2023-02-11T18:27:48.929Z,8.27
2023-02-11T18:30:25.194Z,8.21
2023-02-11T18:32:56.357Z,8.27
2023-02-11T18:35:30.278Z,8.27
2023-02-11T18:37:57.062Z,8.16
2023-02-11T18:40:23.812Z,8.10
2023-02-11T18:42:57.225Z,8.19
2023-02-11T18:45:31.531Z,8.19
2023-02-11T18:48:13.938Z,8.24
2023-02-11T18:50:53.946Z,8.22
2023-02-11T18:53:27.968Z,8.12
2023-02-11T18:55:55.171Z,8.20
2023-02-11T18:58:29.045Z,8.17
2023-02-11T19:01:02.234Z,8.17
2023-02-11T19:03:45.063Z,8.24
2023-02-11T19:06:17.564Z,8.21
2023-02-11T19:08:54.206Z,8.09
2023-02-11T19:11:41.805Z,8.06
2023-02-11T19:14:17.126Z,8.18
2023-02-11T19:16:47.732Z,8.15
2023-02-11T19:19:35.066Z,8.21
2023-02-11T19:22:21.239Z,8.18
2023-02-11T19:25:00.169Z,8.04
2023-02-11T19:27:35.778Z,8.08
2023-02-11T19:30:02.877Z,8.04
2023-02-11T19:32:37.031Z,8.24
2023-02-11T19:35:05.506Z,8.21
2023-02-11T19:37:39.038Z,8.21
2023-02-11T19:40:06.611Z,8.14
2023-02-11T19:42:40.048Z,8.19
2023-02-11T19:45:27.192Z,8.07
2023-02-11T19:48:04.112Z,8.13
2023-02-11T19:50:37.606Z,8.18
2023-02-11T19:53:11.105Z,8.09
2023-02-11T19:55:37.775Z,8.18
2023-02-11T19:58:11.178Z,8.15
2023-02-11T20:00:40.565Z,7.97
2023-02-11T20:03:14.034Z,8.10
2023-02-11T20:05:56.234Z,8.07
2023-02-11T20:08:22.969Z,8.13
2023-02-11T20:10:59.031Z,7.99
2023-02-11T20:13:25.742Z,8.10
2023-02-11T20:15:59.035Z,8.08
2023-02-11T20:18:32.089Z,8.10
2023-02-11T20:21:08.061Z,8.12
2023-02-11T20:23:35.548Z,8.06
2023-02-11T20:26:32.511Z,8.01
2023-02-11T20:29:09.044Z,7.96
2023-02-11T20:31:53.155Z,7.96
2023-02-11T20:34:21.405Z,7.96
2023-02-11T20:37:04.109Z,7.93
2023-02-11T20:39:31.077Z,8.02
2023-02-11T20:42:04.993Z,7.92
2023-02-11T20:44:32.029Z,8.02
2023-02-11T20:47:12.094Z,7.99
2023-02-11T20:49:38.766Z,7.99
2023-02-11T20:52:20.926Z,7.99
2023-02-11T20:57:31.133Z,7.88
2023-02-11T21:00:04.071Z,7.93
2023-02-11T21:02:30.691Z,7.97
2023-02-11T21:05:07.639Z,7.95
2023-02-11T21:07:39.100Z,7.86
2023-02-11T21:10:13.496Z,7.78
2023-02-11T21:12:42.353Z,7.80
2023-02-11T21:15:16.208Z,7.91
2023-02-11T21:17:45.391Z,7.89
2023-02-11T21:20:19.133Z,7.77
2023-02-11T21:22:45.791Z,7.89
2023-02-11T21:25:12.508Z,7.74
2023-02-11T21:27:49.427Z,7.88
2023-02-11T21:30:19.510Z,7.65
2023-02-11T21:32:56.204Z,7.85
2023-02-11T21:35:29.187Z,7.80
2023-02-11T21:38:03.081Z,7.84
2023-02-11T21:40:33.267Z,7.81
2023-02-11T21:43:06.126Z,7.80
2023-02-11T21:45:49.100Z,7.80
2023-02-11T21:48:30.126Z,7.82
2023-02-11T21:50:56.728Z,7.78
2023-02-11T21:53:32.764Z,7.81
2023-02-11T21:56:07.720Z,7.79
2023-02-11T21:58:51.708Z,7.78
2023-02-11T22:01:21.830Z,7.78
2023-02-11T22:04:20.387Z,7.76
2023-02-11T22:06:47.114Z,7.74
2023-02-11T22:09:13.824Z,7.60
2023-02-11T22:11:58.492Z,7.63
2023-02-11T22:14:32.499Z,7.65
2023-02-11T22:17:08.461Z,7.67
2023-02-11T22:19:42.152Z,7.65
2023-02-11T22:22:18.428Z,7.61
2023-02-11T22:24:55.116Z,7.60
2023-02-11T22:27:29.069Z,7.59
2023-02-11T22:29:55.791Z,7.61
2023-02-11T22:32:34.081Z,7.53
2023-02-11T22:35:00.687Z,7.55
2023-02-11T22:37:37.301Z,7.55
2023-02-11T22:40:04.855Z,7.42
2023-02-11T22:42:34.286Z,7.34
2023-02-11T22:45:07.204Z,7.45
2023-02-11T22:47:54.948Z,7.51
2023-02-11T22:50:22.607Z,7.52
2023-02-11T22:52:56.148Z,7.49
2023-02-11T22:55:24.100Z,7.50
2023-02-11T22:57:54.027Z,7.50
2023-02-11T23:00:31.244Z,7.46
2023-02-11T23:02:58.081Z,7.42
2023-02-11T23:05:31.424Z,7.44
2023-02-11T23:07:58.162Z,7.40
2023-02-11T23:10:34.211Z,7.33
2023-02-11T23:13:00.836Z,7.28
2023-02-11T23:15:38.181Z,7.34
2023-02-11T23:18:05.435Z,7.21
2023-02-11T23:20:41.086Z,7.34
2023-02-11T23:23:08.497Z,7.32
2023-02-11T23:25:49.097Z,7.36
2023-02-11T23:28:18.629Z,7.33
2023-02-11T23:30:59.141Z,7.35
2023-02-11T23:33:32.142Z,7.34
2023-02-11T23:36:00.632Z,7.32
2023-02-11T23:38:37.096Z,7.32
2023-02-11T23:41:13.690Z,7.29
2023-02-11T23:43:47.118Z,7.26
2023-02-11T23:46:22.540Z,7.21
2023-02-11T23:49:03.979Z,7.15
2023-02-11T23:51:38.115Z,7.17
2023-02-11T23:54:11.125Z,7.11
2023-02-11T23:56:52.616Z,7.05
2023-02-11T23:59:28.452Z,7.13
